Flight Track Log - Related Links

Times and Time Zones

All times are in EDT time to prevent confusion due to time zone crossing. See the N22WU flight status page for this flight to view local times or setup timezone preferences in your user account.

Time Position Orientation Groundspeed Altitude Reporting Facility
EDT Latitude Longitude Course Direction KTS MPH feet Rate Location/Type
Tue 11:32:42 PM 41.9294 -84.3036 300° West 148 170 4,400  Level Chicago Center
Tue 11:33:43 PM 41.9489 -84.3528 298° West 149 171 4,400  Level Chicago Center
Tue 11:34:45 PM 41.9686 -84.4025 298° West 149 171 4,400  Level Chicago Center
Tue 11:35:45 PM 41.9878 -84.4511 298° West 150 173 4,400  Level Chicago Center
Tue 11:36:46 PM 42.0081 -84.5003 299° West 150 173 4,400  Level Chicago Center
Tue 11:37:48 PM 42.0272 -84.5503 297° West 150 173 4,400  Level Chicago Center
Tue 11:38:50 PM 42.0467 -84.5994 298° West 150 173 4,400  Level Chicago Center
Tue 11:39:50 PM 42.0667 -84.6486 299° West 150 173 4,400  Level Chicago Center
Tue 11:40:51 PM 42.0861 -84.6986 298° West 150 173 4,400  Level Chicago Center
Tue 11:41:52 PM 42.1097 -84.7581 298° West 151 174 4,400  Level Chicago Center
Tue 11:42:54 PM 42.1300 -84.8103 298° West 155 178 4,400  Level Chicago Center
Tue 11:44:00 PM 42.1417 -84.8592 288° West  Level FlightAware
Tue 11:51:00 PM 42.2619 -85.1437 306° West  Level Estimated
Tue 11:52:00 PM 42.2747 -85.1872 292° West  Level FlightAware
Tue 11:53:00 PM 42.2937 -85.2374 304° West  Level FlightAware
Tue 11:54:00 PM 42.3000 -85.2500 304° West  Level FlightAware
Tue 11:55:00 PM 42.3065 -85.2501 304° West  Level Estimated
Tue 11:56:00 PM 42.3000 -85.2500 304° West  Level FlightAware
Tue 11:57:00 PM 42.3065 -85.2501 304° West  Level Estimated
Tue 11:58:00 PM 42.3000 -85.2500 304° West  Level FlightAware
Tue 11:59:00 PM 42.3065 -85.2501 304° West  Level Estimated
Wed 12:00:00 AM 42.3000 -85.2500 304° West  Level FlightAware
Wed 12:01:00 AM 42.3065 -85.2501 304° West  Level Estimated
Wed 12:02:00 AM 42.3000 -85.2500 304° West  Level FlightAware
Wed 12:03:00 AM 42.3065 -85.2501 304° West  Level Estimated
Wed 12:04:00 AM 42.3000 -85.2500 304° West  Level FlightAware
Wed 12:05:00 AM 42.3065 -85.2501 304° West  Level Estimated
Wed 12:06:00 AM 42.3000 -85.2500 304° West  Level FlightAware
Wed 12:07:00 AM 42.3065 -85.2501 304° West  Level Estimated
Wed 12:08:00 AM 42.3000 -85.2500 304° West  Level FlightAware
Wed 12:09:00 AM 42.3065 -85.2501 304° West  Level Estimated
Wed 12:10:00 AM 42.3000 -85.2500 304° West  Level FlightAware
Wed 12:11:00 AM 42.3065 -85.2501 304° West  Level Estimated
Wed 12:12:00 AM 42.3000 -85.2500 304° West  Level FlightAware
Wed 12:13:00 AM 42.3065 -85.2501 304° West  Level Estimated
Wed 12:14:00 AM 42.3000 -85.2500 304° West  Level FlightAware
Wed 12:15:00 AM 42.3065 -85.2501 304° West  Level Estimated
Wed 12:16:00 AM 42.3000 -85.2500 304° West  Level FlightAware
Wed 12:17:00 AM 42.3065 -85.2501 304° West  Level Estimated
Wed 12:18:00 AM 42.3000 -85.2500 304° West  Level FlightAware
Wed 12:19:00 AM 42.3065 -85.2501 304° West  Level Estimated
Wed 12:20:00 AM 42.3000 -85.2500 304° West  Level FlightAware
Wed 12:21:00 AM 42.3065 -85.2501 304° West  Level Estimated
Wed 12:22:00 AM 42.3000 -85.2500 304° West  Level FlightAware
Wed 12:23:00 AM 42.3065 -85.2501 304° West  Level Estimated
Wed 12:24:00 AM 42.3000 -85.2500 304° West  Level FlightAware
Wed 12:25:00 AM 42.3065 -85.2501 304° West  Level Estimated
Wed 12:26:00 AM 42.3000 -85.2500 304° West  Level FlightAware
Wed 12:27:00 AM 42.3065 -85.2501 304° West  Level Estimated
Wed 12:28:00 AM 42.3000 -85.2500 304° West  Level FlightAware
Wed 12:29:00 AM 42.3065 -85.2501 304° West  Level Estimated
Wed 12:30:00 AM 42.3000 -85.2500 304° West  Level FlightAware
Wed 12:31:00 AM 42.3065 -85.2501 304° West  Level Estimated
Wed 12:32:00 AM 42.3000 -85.2500 304° West  Level FlightAware
Wed 12:33:00 AM 42.3065 -85.2501 304° West  Level Estimated
Wed 12:34:00 AM 42.3000 -85.2500 304° West  Level FlightAware
Wed 12:35:00 AM 42.3065 -85.2501 304° West  Level Estimated
Wed 12:36:00 AM 42.3000 -85.2500 304° West  Level FlightAware
Wed 12:37:00 AM 42.3065 -85.2501 304° West  Level Estimated
Wed 12:38:00 AM 42.3000 -85.2500 304° West  Level FlightAware
Wed 12:39:00 AM 42.3065 -85.2501 304° West  Level Estimated
Wed 12:40:00 AM 42.3000 -85.2500 304° West  Level FlightAware
Wed 12:41:00 AM 42.3065 -85.2501 304° West  Level Estimated
Wed 12:42:00 AM 42.3000 -85.2500 304° West  Level FlightAware
Wed 12:43:00 AM 42.3065 -85.2501 304° West  Level Estimated
Wed 12:44:00 AM 42.3000 -85.2500 304° West  Level FlightAware
Wed 12:45:00 AM 42.3065 -85.2501 304° West  Level Estimated
Wed 12:46:00 AM 42.3000 -85.2500 304° West  Level FlightAware

Login

Don't have an account? Register now (free) for customized features, flight alerts, and more!